Brinklow, MD

7:54 AM EST on March 02, 2015 (GMT -0500)
Montgomery County | Change Station
CLOSE
Current Station
Airport
Location: Gaithersburg,
Elevation: 538 ft
Nearby Weather Stations

Elev 538 ft 39.17 °N, 77.16 °W | Updated 19 minutes ago

Overcast
Overcast
34 °F
Feels Like 34 °F
N
0
Wind Variable Wind from North

Today
High -- | Low -- °F
--% Chance of Precip.
Yesterday
High -- | Low -- °F
Precip. -- in
6:39 AM 6:01 PM
Waxing Gibbous, 91% visible
Pressure 30.18 in
Visibility 10.0 miles
Clouds Scattered Clouds 4500 ft
Dew Point 30 °F
Humidity 87%
Rainfall 0.02 in
Snow Depth Not available.
UV 0 out of 12
Pollen .60 out of 12
Air Quality Not available.
Flu Activity Not available.
METAR KGAI 021235Z AUTO 00000KT 10SM SCT045 01/M01 A3018 RMK AO1

More Conditions Fewer Conditions

Pressure 30.18 in
Visibility 10.0 miles
Clouds Scattered Clouds 4500 ft
Dew Point 30 °F
Humidity 87%
Rainfall 0.02 in
Snow Depth Not available.
UV 0 out of 12
Pollen .60 out of 12
Air Quality Not available.
Flu Activity Not available.
METAR KGAI 021235Z AUTO 00000KT 10SM SCT045 01/M01 A3018 RMK AO1

More Conditions Fewer Conditions

10-Day Weather Forecast

Almanac

Astronomy

Mar. 02, 2015 Rise Set
Actual Time
Civil Twilight
Nautical Twilight
Astronomical Twilight
Moon
Length of Visible Light
Length of Day
Tomorrow will be .
, % of the Moon is Illuminated

Today's Extremes

State Highs State Lows

Community

WunderPhotos

Upload Photos

1,801,772 photos uploaded!

WunderBlogs® & News

Nearby

Air Quality

  Air Quality AQ Index Pollutant
Not available.

Snow Depth

Station Depth Elevation

Earthquake Activity

City Distance Mag. Time & Date
Minimum magnitude displayed is 2.5.

Coastal Water Temperatures

Place Temperature

Nearby Weather Stations

Dense Fog Advisory
Statement as of 6:52 AM EST on March 02, 2015

... Dense fog advisory remains in effect until 9 am EST this
morning...

* visibilities... one quarter mile or less.

* Impacts... areas of dense fog will cause sudden reductions in
visibility and rapidly changing conditions. Icy conditions are
also possible this morning.

Precautionary/preparedness actions...

A dense fog advisory means visibilities will frequently be
reduced to less than one quarter mile. If driving... slow down...
use your low-beam headlights... and leave plenty of distance ahead
of you.




Special Statement
Statement as of 4:26 AM EST on March 02, 2015


... Icy conditions and patchy dense fog expected this morning...

Ice will persist on untreated surfaces this morning as air
temperatures remain around freezing. Patchy dense fog will
combine with residual ice and may result in patchy slick spots
overnight especially on untreated surfaces. Visibilities may drop
to a quarter mile or less at times especially around the
Washington DC Metro.

Please use extra caution if traveling... be prepared for icy
patches and sudden drops in visibilities on roadways. Sidewalks
are likely quite icy and require particular caution.